createdAt,value
2022-08-14T00:02:09.205Z,17.97
2022-08-14T00:04:42.438Z,17.88
2022-08-14T00:07:14.005Z,17.85
2022-08-14T00:10:01.184Z,17.81
2022-08-14T00:12:39.073Z,17.75
2022-08-14T00:15:18.307Z,17.57
2022-08-14T00:17:48.309Z,17.64
2022-08-14T00:20:31.044Z,17.70
2022-08-14T00:23:12.142Z,17.53
2022-08-14T00:25:58.801Z,17.51
2022-08-14T00:28:35.316Z,17.44
2022-08-14T00:31:03.093Z,17.38
2022-08-14T00:33:52.496Z,17.30
2022-08-14T00:36:37.265Z,17.30
2022-08-14T00:39:06.725Z,17.20
2022-08-14T00:41:39.366Z,16.96
2022-08-14T00:44:09.072Z,16.98
2022-08-14T00:46:41.086Z,17.08
2022-08-14T00:49:14.690Z,17.02
2022-08-14T00:51:46.053Z,16.60
2022-08-14T00:54:21.809Z,16.71
2022-08-14T00:56:55.402Z,16.71
2022-08-14T00:59:26.568Z,16.70
2022-08-14T01:01:56.403Z,16.73
2022-08-14T01:04:37.914Z,16.67
2022-08-14T01:07:21.373Z,16.67
2022-08-14T01:09:55.869Z,16.69
2022-08-14T01:12:27.205Z,16.73
2022-08-14T01:15:03.581Z,16.65
2022-08-14T01:17:51.960Z,16.65
2022-08-14T01:20:43.058Z,16.52
2022-08-14T01:23:16.179Z,16.53
2022-08-14T01:25:49.030Z,16.51
2022-08-14T01:28:47.211Z,16.31
2022-08-14T01:31:12.368Z,16.51
2022-08-14T01:33:59.536Z,16.37
2022-08-14T01:36:36.966Z,16.35
2022-08-14T01:39:15.392Z,16.28
2022-08-14T01:41:52.380Z,16.30
2022-08-14T01:44:32.350Z,16.24
2022-08-14T01:47:21.714Z,16.35
2022-08-14T01:49:59.926Z,16.25
2022-08-14T01:53:00.140Z,16.11
2022-08-14T01:55:32.303Z,16.07
2022-08-14T01:58:18.942Z,16.15
2022-08-14T02:00:54.960Z,15.89
2022-08-14T02:03:30.852Z,15.60
2022-08-14T02:06:03.869Z,15.42
2022-08-14T02:08:53.453Z,15.45
2022-08-14T02:11:23.908Z,15.57
2022-08-14T02:14:07.097Z,15.54
2022-08-14T02:16:42.764Z,15.71
2022-08-14T02:19:15.990Z,15.70
2022-08-14T02:21:50.647Z,15.68
2022-08-14T02:24:40.376Z,15.68
2022-08-14T02:28:25.871Z,15.71
2022-08-14T02:30:02.056Z,15.67
2022-08-14T02:32:36.578Z,15.50
2022-08-14T02:35:16.704Z,15.55
2022-08-14T02:37:51.467Z,15.57
2022-08-14T02:40:20.149Z,15.43
2022-08-14T02:42:55.081Z,15.34
2022-08-14T02:45:38.468Z,15.26
2022-08-14T02:49:03.831Z,15.42
2022-08-14T02:51:10.581Z,15.38
2022-08-14T02:53:42.757Z,15.45
2022-08-14T02:56:29.589Z,15.35
2022-08-14T02:59:00.395Z,15.41
2022-08-14T03:01:31.366Z,15.38
2022-08-14T03:04:15.178Z,15.34
2022-08-14T03:06:57.974Z,15.34
2022-08-14T03:09:41.908Z,15.32
2022-08-14T03:12:31.169Z,15.19
2022-08-14T03:15:02.898Z,15.24
2022-08-14T03:17:40.970Z,15.19
2022-08-14T03:20:22.653Z,15.23
2022-08-14T03:22:52.511Z,15.13
2022-08-14T03:25:22.495Z,15.22
2022-08-14T03:27:58.353Z,15.13
2022-08-14T03:30:40.003Z,15.24
2022-08-14T03:33:12.329Z,15.01
2022-08-14T03:36:05.736Z,14.55
2022-08-14T03:39:12.797Z,14.70
2022-08-14T03:41:23.727Z,14.16
2022-08-14T03:43:57.770Z,14.03
2022-08-14T03:46:52.425Z,14.12
2022-08-14T03:49:28.492Z,14.53
2022-08-14T03:52:07.722Z,14.66
2022-08-14T03:54:52.648Z,14.57
2022-08-14T03:57:22.839Z,14.61
2022-08-14T03:59:50.596Z,14.30
2022-08-14T04:02:33.330Z,14.39
2022-08-14T04:05:12.885Z,14.43
2022-08-14T04:07:49.438Z,14.53
2022-08-14T04:10:17.686Z,14.61
2022-08-14T04:13:03.237Z,14.64
2022-08-14T04:15:32.212Z,14.65
2022-08-14T04:18:19.271Z,14.65
2022-08-14T04:20:54.491Z,14.69
2022-08-14T04:23:23.745Z,14.68
2022-08-14T04:25:58.134Z,14.67
2022-08-14T04:29:05.244Z,14.58
2022-08-14T04:31:15.791Z,14.61
2022-08-14T04:33:42.937Z,14.63
2022-08-14T04:36:15.767Z,14.63
2022-08-14T04:39:02.663Z,14.66
2022-08-14T04:41:50.450Z,14.66
2022-08-14T04:44:26.691Z,14.64
2022-08-14T04:47:22.300Z,14.57
2022-08-14T04:49:57.458Z,14.57
2022-08-14T04:52:28.528Z,14.55
2022-08-14T04:54:58.083Z,14.65
2022-08-14T04:57:26.935Z,14.72
2022-08-14T05:00:00.369Z,14.67
2022-08-14T05:02:28.405Z,14.70
2022-08-14T05:04:57.047Z,14.84
2022-08-14T05:07:46.705Z,14.50
2022-08-14T05:10:16.720Z,14.56
2022-08-14T05:13:12.938Z,14.76
2022-08-14T05:15:40.827Z,14.89
2022-08-14T05:18:17.680Z,14.88
2022-08-14T05:21:59.633Z,15.09
2022-08-14T05:23:52.048Z,15.26
2022-08-14T05:26:23.016Z,15.82
2022-08-14T05:28:54.799Z,15.77
2022-08-14T05:31:21.478Z,15.61
2022-08-14T05:33:56.729Z,15.49
2022-08-14T05:36:29.000Z,15.60
2022-08-14T05:38:57.535Z,15.76
2022-08-14T05:41:24.136Z,16.28
2022-08-14T05:44:10.768Z,16.65
2022-08-14T05:46:37.370Z,16.97
2022-08-14T05:49:07.214Z,16.63
2022-08-14T05:51:38.686Z,16.85
2022-08-14T05:54:13.545Z,16.97
2022-08-14T05:56:45.114Z,17.00
2022-08-14T05:59:12.343Z,17.06
2022-08-14T06:01:41.180Z,17.82
2022-08-14T06:04:10.264Z,17.87
2022-08-14T06:06:41.459Z,18.08
2022-08-14T06:09:12.791Z,18.08
2022-08-14T06:11:41.893Z,18.94
2022-08-14T06:14:21.127Z,19.71
2022-08-14T06:16:52.029Z,19.57
2022-08-14T06:19:23.623Z,18.55
2022-08-14T06:21:58.951Z,18.30
2022-08-14T06:24:27.563Z,18.66
2022-08-14T06:27:03.887Z,18.08
2022-08-14T06:29:33.648Z,17.98
2022-08-14T06:32:37.451Z,18.23
2022-08-14T06:35:09.525Z,17.97
2022-08-14T06:37:53.731Z,18.19
2022-08-14T06:40:28.525Z,17.98
2022-08-14T06:43:00.381Z,18.25
2022-08-14T06:45:33.452Z,17.98
2022-08-14T06:48:03.291Z,17.86
2022-08-14T06:50:33.810Z,18.00
2022-08-14T06:53:02.959Z,18.15
2022-08-14T06:55:32.676Z,18.34
2022-08-14T06:58:01.450Z,18.50
2022-08-14T07:00:30.868Z,18.89
2022-08-14T07:03:19.428Z,19.20
2022-08-14T07:05:55.541Z,19.39
2022-08-14T07:08:31.373Z,19.50
2022-08-14T07:11:07.121Z,19.40
2022-08-14T07:13:36.554Z,19.93
2022-08-14T07:16:05.706Z,19.80
2022-08-14T07:18:34.417Z,19.35
2022-08-14T07:21:05.371Z,19.86
2022-08-14T07:23:40.269Z,20.43
2022-08-14T07:26:11.242Z,20.98
2022-08-14T07:28:43.158Z,20.47
2022-08-14T07:31:12.312Z,20.55
2022-08-14T07:33:51.794Z,20.93
2022-08-14T07:36:26.984Z,20.99
2022-08-14T07:39:00.338Z,20.95
2022-08-14T07:41:33.671Z,21.40
2022-08-14T07:44:28.589Z,21.92
2022-08-14T07:46:50.400Z,21.97
2022-08-14T07:49:18.301Z,21.66
2022-08-14T07:51:45.702Z,22.01
2022-08-14T07:54:23.432Z,22.18
2022-08-14T07:56:59.778Z,21.92
2022-08-14T07:59:41.923Z,22.12
2022-08-14T08:02:18.673Z,22.18
2022-08-14T08:04:50.602Z,22.51
2022-08-14T08:07:22.226Z,22.61
2022-08-14T08:09:57.916Z,23.16
2022-08-14T08:12:30.999Z,22.97
2022-08-14T08:15:07.390Z,23.01
2022-08-14T08:17:42.528Z,23.13
2022-08-14T08:20:28.279Z,23.28
2022-08-14T08:23:00.545Z,23.34
2022-08-14T08:25:39.752Z,23.77
2022-08-14T08:28:21.906Z,24.02
2022-08-14T08:30:54.683Z,24.08
2022-08-14T08:33:32.101Z,23.76
2022-08-14T08:36:12.804Z,23.92
2022-08-14T08:39:17.145Z,24.16
2022-08-14T08:41:54.120Z,24.22
2022-08-14T08:44:33.205Z,24.54
2022-08-14T08:47:07.895Z,24.35
2022-08-14T08:49:43.172Z,24.15
2022-08-14T08:52:25.509Z,23.92
2022-08-14T08:54:58.665Z,23.82
2022-08-14T08:57:25.696Z,24.39
2022-08-14T08:59:54.754Z,24.38
2022-08-14T09:02:27.976Z,24.62
2022-08-14T09:05:04.196Z,24.76
2022-08-14T09:07:33.587Z,24.80
2022-08-14T09:10:00.881Z,24.92
2022-08-14T09:12:32.982Z,25.04
2022-08-14T09:15:08.894Z,25.44
2022-08-14T09:17:44.113Z,25.21
2022-08-14T09:20:12.573Z,24.97
2022-08-14T09:22:47.654Z,25.05
2022-08-14T09:25:17.236Z,24.93
2022-08-14T09:27:46.937Z,25.21
2022-08-14T09:30:33.051Z,25.64
2022-08-14T09:33:00.485Z,25.66
2022-08-14T09:35:56.537Z,25.50
2022-08-14T09:38:47.127Z,25.72
2022-08-14T09:42:20.583Z,25.62
2022-08-14T09:44:59.877Z,25.77
2022-08-14T09:47:44.066Z,25.72
2022-08-14T09:50:26.116Z,26.04
2022-08-14T09:52:57.468Z,25.89
2022-08-14T09:55:27.794Z,25.97
2022-08-14T09:58:15.056Z,25.86
2022-08-14T10:00:52.697Z,25.91
2022-08-14T10:03:34.833Z,25.81
2022-08-14T10:06:13.743Z,25.39
2022-08-14T10:08:42.851Z,25.52
2022-08-14T10:11:19.408Z,26.07
2022-08-14T10:13:56.838Z,26.24
2022-08-14T10:16:33.227Z,25.67
2022-08-14T10:19:09.863Z,26.37
2022-08-14T10:21:58.829Z,26.54
2022-08-14T10:24:40.213Z,26.53
2022-08-14T10:27:26.623Z,26.75
2022-08-14T10:30:01.749Z,26.68
2022-08-14T10:32:40.215Z,27.08
2022-08-14T10:35:16.616Z,27.37
2022-08-14T10:37:49.819Z,27.66
2022-08-14T10:40:43.874Z,27.73
2022-08-14T10:43:23.224Z,27.53
2022-08-14T10:46:03.798Z,27.25
2022-08-14T10:48:45.895Z,27.44
2022-08-14T10:51:15.089Z,27.77
2022-08-14T10:53:44.597Z,27.64
2022-08-14T10:56:22.060Z,28.01
2022-08-14T10:59:06.125Z,28.21
2022-08-14T11:01:41.341Z,28.30
2022-08-14T11:04:20.561Z,27.99
2022-08-14T11:06:53.933Z,27.94
2022-08-14T11:09:21.018Z,28.00
2022-08-14T11:12:36.692Z,28.04
2022-08-14T11:15:02.828Z,28.00
2022-08-14T11:17:32.719Z,27.97
2022-08-14T11:20:00.990Z,28.09
2022-08-14T11:23:03.140Z,28.14
2022-08-14T11:25:25.490Z,27.97
2022-08-14T11:28:19.178Z,28.02
2022-08-14T11:30:54.190Z,27.92
2022-08-14T11:33:31.104Z,28.32
2022-08-14T11:36:01.744Z,28.12
2022-08-14T11:38:35.715Z,27.77
2022-08-14T11:41:05.554Z,28.09
2022-08-14T11:43:58.229Z,28.26
2022-08-14T11:46:30.563Z,28.18
2022-08-14T11:49:09.417Z,27.61
2022-08-14T11:51:53.047Z,27.17
2022-08-14T11:54:34.799Z,27.22
2022-08-14T11:57:02.297Z,27.33
2022-08-14T11:59:38.563Z,27.50
2022-08-14T12:03:01.251Z,27.25
2022-08-14T12:05:04.948Z,26.70
2022-08-14T12:07:36.829Z,26.67
2022-08-14T12:10:26.954Z,26.55
2022-08-14T12:12:59.452Z,27.09
2022-08-14T12:15:36.275Z,27.18
2022-08-14T12:18:03.608Z,26.90
2022-08-14T12:20:34.545Z,27.02
2022-08-14T12:23:05.572Z,27.16
2022-08-14T12:25:35.479Z,27.36
2022-08-14T12:28:10.213Z,26.88
2022-08-14T12:30:56.568Z,27.02
2022-08-14T12:33:33.983Z,26.87
2022-08-14T12:36:08.184Z,27.00
2022-08-14T12:38:43.916Z,27.14
2022-08-14T12:41:21.276Z,27.08
2022-08-14T12:43:56.878Z,27.02
2022-08-14T12:46:43.736Z,26.84
2022-08-14T12:49:17.138Z,26.82
2022-08-14T12:51:56.888Z,26.82
2022-08-14T12:54:29.268Z,26.74
2022-08-14T12:57:19.663Z,27.01
2022-08-14T12:59:47.583Z,27.09
2022-08-14T13:02:27.084Z,27.14
2022-08-14T13:04:58.031Z,27.21
2022-08-14T13:07:32.014Z,27.18
2022-08-14T13:10:46.129Z,27.07
2022-08-14T13:13:12.939Z,27.21
2022-08-14T13:15:40.970Z,27.24
2022-08-14T13:18:12.392Z,27.15
2022-08-14T13:20:49.813Z,27.04
2022-08-14T13:23:19.676Z,27.17
2022-08-14T13:25:58.150Z,26.88
2022-08-14T13:28:34.109Z,27.15
2022-08-14T13:31:11.204Z,27.43
2022-08-14T13:33:42.149Z,27.34
2022-08-14T13:36:10.243Z,27.53
2022-08-14T13:38:51.331Z,27.62
2022-08-14T13:41:28.054Z,27.66
2022-08-14T13:44:03.628Z,27.65
2022-08-14T13:46:32.694Z,27.66
2022-08-14T13:48:59.978Z,27.70
2022-08-14T13:51:33.689Z,27.63
2022-08-14T13:54:10.736Z,27.52
2022-08-14T13:56:41.985Z,27.52
2022-08-14T13:59:11.272Z,27.58
2022-08-14T14:01:43.343Z,27.41
2022-08-14T14:04:18.932Z,27.45
2022-08-14T14:06:52.134Z,27.34
2022-08-14T14:09:37.463Z,27.08
2022-08-14T14:12:38.220Z,27.21
2022-08-14T14:15:14.863Z,26.93
2022-08-14T14:17:44.770Z,27.04
2022-08-14T14:20:35.125Z,27.15
2022-08-14T14:23:10.539Z,27.15
2022-08-14T14:25:48.474Z,27.08
2022-08-14T14:28:24.521Z,27.16
2022-08-14T14:30:57.310Z,27.21
2022-08-14T14:33:45.204Z,27.26
2022-08-14T14:36:14.706Z,27.38
2022-08-14T14:38:44.250Z,27.26
2022-08-14T14:41:15.260Z,27.32
2022-08-14T14:43:48.984Z,27.39
2022-08-14T14:46:20.034Z,27.39
2022-08-14T14:48:54.462Z,27.46
2022-08-14T14:51:22.199Z,27.42
2022-08-14T14:53:49.496Z,27.24
2022-08-14T14:56:49.649Z,27.19
2022-08-14T14:59:06.844Z,27.18
2022-08-14T15:01:37.764Z,27.10
2022-08-14T15:04:20.388Z,26.96
2022-08-14T15:06:52.608Z,26.75
2022-08-14T15:09:20.885Z,26.79
2022-08-14T15:11:50.427Z,26.86
2022-08-14T15:14:57.184Z,26.58
2022-08-14T15:17:06.573Z,26.47
2022-08-14T15:19:33.373Z,26.43
2022-08-14T15:22:00.316Z,26.35
2022-08-14T15:24:27.366Z,26.31
2022-08-14T15:26:58.465Z,26.34
2022-08-14T15:29:30.345Z,26.38
2022-08-14T15:32:00.564Z,26.32
2022-08-14T15:34:43.268Z,26.32
2022-08-14T15:37:17.983Z,26.37
2022-08-14T15:39:45.491Z,26.24
2022-08-14T15:42:15.593Z,26.12
2022-08-14T15:44:57.285Z,26.16
2022-08-14T15:47:28.817Z,26.05
2022-08-14T15:49:59.341Z,26.07
2022-08-14T15:52:37.324Z,26.10
2022-08-14T15:55:07.586Z,26.15
2022-08-14T15:57:36.818Z,26.00
2022-08-14T16:00:40.609Z,26.04
2022-08-14T16:03:12.756Z,26.00
2022-08-14T16:05:47.219Z,25.92
2022-08-14T16:08:27.105Z,25.87
2022-08-14T16:11:01.965Z,25.78
2022-08-14T16:13:39.626Z,25.74
2022-08-14T16:16:49.812Z,25.68
2022-08-14T16:19:18.444Z,25.65
2022-08-14T16:22:01.324Z,25.59
2022-08-14T16:24:33.449Z,25.50
2022-08-14T16:27:01.616Z,25.66
2022-08-14T16:29:36.634Z,25.71
2022-08-14T16:32:32.600Z,25.71
2022-08-14T16:34:56.551Z,25.82
2022-08-14T16:37:30.612Z,25.83
2022-08-14T16:39:58.890Z,25.85
2022-08-14T16:42:38.999Z,25.93
2022-08-14T16:45:25.330Z,25.99
2022-08-14T16:47:52.827Z,26.02
2022-08-14T16:50:40.060Z,26.05
2022-08-14T16:53:10.312Z,26.05
2022-08-14T16:55:53.187Z,25.98
2022-08-14T16:58:29.661Z,26.03
2022-08-14T17:01:22.997Z,25.95
2022-08-14T17:04:00.662Z,25.90
2022-08-14T17:06:39.647Z,25.81
2022-08-14T17:09:43.371Z,25.70
2022-08-14T17:12:28.956Z,25.58
2022-08-14T17:15:11.203Z,25.54
2022-08-14T17:17:58.252Z,25.47
2022-08-14T17:20:53.266Z,25.26
2022-08-14T17:23:19.509Z,25.26
2022-08-14T17:25:51.311Z,25.16
2022-08-14T17:28:51.505Z,25.12
2022-08-14T17:31:07.859Z,25.00
2022-08-14T17:33:44.813Z,24.99
2022-08-14T17:36:23.981Z,24.99
2022-08-14T17:39:06.693Z,24.96
2022-08-14T17:41:43.790Z,24.90
2022-08-14T17:44:21.475Z,24.82
2022-08-14T17:46:55.208Z,24.76
2022-08-14T17:49:31.867Z,24.73
2022-08-14T17:52:36.450Z,24.68
2022-08-14T17:56:02.604Z,24.63
2022-08-14T17:58:01.946Z,24.56
2022-08-14T18:00:50.232Z,24.40
2022-08-14T18:03:44.551Z,24.43
2022-08-14T18:06:09.844Z,24.43
2022-08-14T18:08:56.657Z,24.37
2022-08-14T18:11:26.577Z,24.34
2022-08-14T18:14:31.407Z,24.30
2022-08-14T18:17:02.314Z,24.23
2022-08-14T18:19:38.058Z,24.23
2022-08-14T18:22:30.874Z,24.15
2022-08-14T18:25:02.147Z,24.06
2022-08-14T18:27:37.710Z,24.03
2022-08-14T18:30:31.987Z,24.04
2022-08-14T18:32:59.186Z,23.97
2022-08-14T18:35:58.546Z,23.90
2022-08-14T18:38:45.937Z,23.87
2022-08-14T18:41:37.135Z,23.86
2022-08-14T18:44:10.700Z,23.82
2022-08-14T18:47:19.828Z,23.75
2022-08-14T18:50:27.103Z,23.73
2022-08-14T18:52:53.275Z,23.70
2022-08-14T18:55:22.320Z,23.65
2022-08-14T18:57:58.501Z,23.63
2022-08-14T19:00:39.905Z,23.57
2022-08-14T19:03:09.244Z,23.58
2022-08-14T19:05:47.710Z,23.56
2022-08-14T19:08:18.185Z,23.52
2022-08-14T19:10:45.631Z,23.49
2022-08-14T19:13:47.955Z,23.45
2022-08-14T19:16:18.554Z,23.35
2022-08-14T19:19:00.500Z,23.33
2022-08-14T19:21:29.873Z,23.30
2022-08-14T19:24:27.245Z,23.28
2022-08-14T19:27:23.637Z,23.19
2022-08-14T19:30:20.585Z,23.19
2022-08-14T19:32:50.603Z,23.13
2022-08-14T19:35:48.936Z,23.12
2022-08-14T19:38:48.312Z,23.03
2022-08-14T19:41:29.694Z,23.06
2022-08-14T19:44:19.536Z,23.03
2022-08-14T19:47:02.682Z,22.99
2022-08-14T19:50:07.425Z,22.95
2022-08-14T19:52:37.093Z,22.84
2022-08-14T19:55:17.960Z,22.85
2022-08-14T19:57:57.866Z,22.89
2022-08-14T20:00:30.339Z,22.84
2022-08-14T20:03:11.362Z,22.85
2022-08-14T20:05:46.488Z,22.81
2022-08-14T20:10:58.599Z,22.74
2022-08-14T20:11:20.963Z,22.74
2022-08-14T20:14:20.568Z,22.72
2022-08-14T20:17:05.934Z,22.59
2022-08-14T20:19:37.777Z,22.58
2022-08-14T20:22:36.312Z,22.57
2022-08-14T20:25:18.287Z,22.58
2022-08-14T20:27:49.929Z,22.57
2022-08-14T20:30:34.512Z,22.57
2022-08-14T20:33:11.170Z,22.53
2022-08-14T20:35:49.291Z,22.48
2022-08-14T20:38:29.516Z,22.44
2022-08-14T20:41:00.895Z,22.43
2022-08-14T20:43:53.079Z,22.34
2022-08-14T20:46:29.449Z,22.34
2022-08-14T20:49:16.958Z,22.31
2022-08-14T20:51:58.613Z,22.28
2022-08-14T20:54:33.504Z,22.24
2022-08-14T20:57:11.895Z,22.28
2022-08-14T20:59:44.734Z,22.26
2022-08-14T21:02:38.460Z,22.23
2022-08-14T21:05:20.532Z,22.17
2022-08-14T21:07:51.125Z,22.15
2022-08-14T21:10:33.908Z,22.17
2022-08-14T21:13:52.611Z,22.13
2022-08-14T21:15:58.071Z,22.10
2022-08-14T21:18:30.604Z,22.14
2022-08-14T21:21:07.020Z,22.14
2022-08-14T21:23:54.336Z,22.16
2022-08-14T21:26:50.648Z,22.12
2022-08-14T21:29:12.013Z,22.13
2022-08-14T21:31:40.376Z,22.14
2022-08-14T21:34:30.969Z,22.16
2022-08-14T21:36:56.811Z,22.15
2022-08-14T21:39:24.499Z,22.14
2022-08-14T21:41:58.761Z,22.18
2022-08-14T21:44:42.588Z,22.15
2022-08-14T21:47:16.639Z,22.12
2022-08-14T21:49:46.193Z,22.11
2022-08-14T21:52:52.257Z,22.12
2022-08-14T21:55:13.907Z,22.07
2022-08-14T21:57:56.466Z,22.08
2022-08-14T22:00:36.343Z,22.09
2022-08-14T22:03:17.225Z,22.09
2022-08-14T22:05:46.545Z,22.04
2022-08-14T22:08:16.946Z,22.00
2022-08-14T22:10:47.807Z,22.00
2022-08-14T22:13:20.949Z,22.02
2022-08-14T22:15:54.344Z,21.98
2022-08-14T22:18:25.452Z,21.96
2022-08-14T22:20:53.694Z,22.01
2022-08-14T22:23:21.790Z,21.94
2022-08-14T22:25:50.802Z,21.73
2022-08-14T22:28:27.282Z,21.47
2022-08-14T22:31:10.143Z,21.38
2022-08-14T22:33:42.896Z,21.24
2022-08-14T22:36:33.757Z,20.97
2022-08-14T22:39:03.128Z,20.82
2022-08-14T22:41:36.512Z,20.75
2022-08-14T22:44:19.779Z,20.53
2022-08-14T22:46:53.449Z,20.58
2022-08-14T22:50:29.987Z,20.27
2022-08-14T22:52:32.164Z,20.24
2022-08-14T22:55:05.984Z,20.04
2022-08-14T22:57:37.370Z,19.90
2022-08-14T23:00:13.228Z,19.86
2022-08-14T23:02:42.830Z,19.89
2022-08-14T23:05:12.985Z,19.54
2022-08-14T23:08:58.411Z,19.45
2022-08-14T23:10:34.729Z,19.46
2022-08-14T23:13:04.306Z,19.66
2022-08-14T23:15:37.527Z,19.61
2022-08-14T23:18:04.591Z,19.50
2022-08-14T23:20:36.124Z,19.48
2022-08-14T23:23:12.565Z,19.48
2022-08-14T23:25:56.974Z,19.47
2022-08-14T23:28:32.715Z,19.37
2022-08-14T23:31:08.388Z,19.18
2022-08-14T23:33:45.831Z,19.00
2022-08-14T23:36:32.269Z,18.62
2022-08-14T23:39:10.409Z,18.54
2022-08-14T23:41:46.330Z,18.60
2022-08-14T23:44:23.687Z,18.66
2022-08-14T23:47:03.403Z,18.52
2022-08-14T23:49:59.804Z,18.39
2022-08-14T23:52:50.272Z,18.47
2022-08-14T23:55:12.532Z,18.46
2022-08-14T23:57:44.199Z,18.33
